Time;durP1;ratioP1;P1;durP2;ratioP2;P2;SDS_P1;SDS_P2;PMS_P1;PMS_P2;Temp;Humidity;BMP_temperature;BMP_pressure;BME280_temperature;BME280_humidity;BME280_pressure;Samples;Min_cycle;Max_cycle;Signal;HPM_P1;HPM_P2
2021/04/28 00:00:39;;;;;;;65.72;28.98;;;;;;;2.21;59.51;100715.84;1723101;82;26398;-74
2021/04/28 00:03:11;;;;;;;57.97;27.60;;;;;;;2.17;59.52;100709.14;1687881;82;25798;-73
2021/04/28 00:05:38;;;;;;;46.35;23.30;;;;;;;2.13;59.52;100714.34;1696840;82;25796;-74
2021/04/28 00:08:06;;;;;;;47.50;23.60;;;;;;;2.06;59.53;100708.73;1702196;82;26491;-74
2021/04/28 00:10:38;;;;;;;50.50;24.60;;;;;;;2.02;59.57;100704.67;1703437;82;27977;-74
2021/04/28 00:13:06;;;;;;;58.63;26.70;;;;;;;1.99;59.64;100702.79;1732513;82;25552;-75
2021/04/28 00:15:36;;;;;;;52.17;25.97;;;;;;;1.97;59.79;100704.69;1701464;82;26410;-74
2021/04/28 00:18:03;;;;;;;54.48;26.95;;;;;;;1.96;59.82;100695.95;1727017;82;25795;-74
2021/04/28 00:20:38;;;;;;;61.85;27.75;;;;;;;1.94;59.88;100695.73;1701911;82;26083;-75
2021/04/28 00:23:00;;;;;;;62.83;29.92;;;;;;;1.92;59.96;100694.55;1680906;82;27503;-74
2021/04/28 00:25:27;;;;;;;62.53;29.35;;;;;;;1.90;60.11;100692.99;1725607;82;25790;-74
2021/04/28 00:27:55;;;;;;;61.15;30.32;;;;;;;1.87;60.15;100688.80;1723408;82;25792;-75
2021/04/28 00:30:23;;;;;;;69.55;30.95;;;;;;;1.87;60.18;100690.12;1729452;82;25615;-74
2021/04/28 00:32:51;;;;;;;74.80;32.83;;;;;;;1.88;60.27;100690.45;1700912;82;25757;-74
2021/04/28 00:35:20;;;;;;;64.15;32.10;;;;;;;1.88;60.37;100688.33;1697515;82;28595;-74
2021/04/28 00:37:50;;;;;;;70.22;32.20;;;;;;;1.90;60.51;100691.67;1726578;82;26097;-74
2021/04/28 00:40:25;;;;;;;59.80;30.80;;;;;;;1.94;60.72;100687.33;1721671;81;25770;-74
2021/04/28 00:42:52;;;;;;;68.83;29.32;;;;;;;2.00;60.95;100692.09;1723845;82;25846;-74
2021/04/28 00:45:22;;;;;;;63.80;31.45;;;;;;;2.00;60.91;100689.44;1699599;82;25703;-74
2021/04/28 00:47:49;;;;;;;62.30;29.42;;;;;;;1.99;61.15;100679.02;1728483;82;27614;-74
2021/04/28 00:50:22;;;;;;;64.35;30.60;;;;;;;2.00;61.19;100691.23;1698624;82;25848;-73
2021/04/28 00:52:50;;;;;;;71.65;32.90;;;;;;;1.99;61.13;100693.04;1707098;82;25600;-74
2021/04/28 00:55:18;;;;;;;80.45;34.60;;;;;;;1.96;61.11;100689.35;1699942;82;26564;-74
2021/04/28 00:57:45;;;;;;;81.85;34.33;;;;;;;1.95;61.03;100686.34;1699925;82;25836;-74
2021/04/28 01:00:16;;;;;;;73.07;33.53;;;;;;;1.90;60.97;100692.52;1701143;82;27340;-75
2021/04/28 01:02:43;;;;;;;79.42;35.65;;;;;;;1.88;60.96;100689.64;1698850;82;25990;-74
2021/04/28 01:05:12;;;;;;;85.95;37.55;;;;;;;1.79;60.90;100669.28;1639783;85;25874;-73
2021/04/28 01:07:43;;;;;;;87.02;36.50;;;;;;;1.86;60.90;100681.02;1655643;85;26214;-74
2021/04/28 01:10:18;;;;;;;81.05;32.60;;;;;;;1.82;60.94;100677.77;1649828;85;26449;-74
2021/04/28 01:12:46;;;;;;;49.80;25.80;;;;;;;1.81;60.90;100684.04;1666106;85;28435;-74
2021/04/28 01:15:19;;;;;;;38.10;20.55;;;;;;;1.80;61.00;100684.14;1649280;85;26121;-74
2021/04/28 01:17:48;;;;;;;40.60;20.40;;;;;;;1.77;60.96;100676.02;1647425;85;25358;-73
2021/04/28 01:20:19;;;;;;;43.15;21.15;;;;;;;1.74;60.95;100672.78;1630047;85;25791;-74
2021/04/28 01:22:49;;;;;;;29.98;18.17;;;;;;;1.71;60.97;100673.06;1648262;85;26102;-74
2021/04/28 01:25:21;;;;;;;32.45;16.77;;;;;;;1.71;61.10;100669.09;1651889;85;27550;-74
2021/04/28 01:27:59;;;;;;;32.60;17.65;;;;;;;1.67;60.98;100676.92;1627058;85;26174;-75
2021/04/28 01:30:44;;;;;;;34.35;17.07;;;;;;;1.56;61.05;100670.71;1669459;84;26694;-74
2021/04/28 01:33:29;;;;;;;36.53;17.02;;;;;;;1.49;61.27;100674.00;1657500;86;25845;-74
2021/04/28 01:35:58;;;;;;;33.30;16.85;;;;;;;1.43;61.43;100674.52;1663932;85;26132;-74
2021/04/28 01:38:32;;;;;;;33.35;16.35;;;;;;;1.41;61.65;100674.63;1646800;85;28346;-74
2021/04/28 01:41:00;;;;;;;35.00;19.40;;;;;;;1.43;61.70;100671.37;1647014;84;25831;-75
2021/04/28 01:43:30;;;;;;;31.60;17.70;;;;;;;1.43;61.76;100668.73;1654139;84;25800;-74
2021/04/28 01:45:57;;;;;;;36.95;20.17;;;;;;;1.40;61.76;100669.48;1663353;84;25833;-74
2021/04/28 01:48:25;;;;;;;30.48;17.42;;;;;;;1.39;61.83;100667.31;1656801;84;26197;-74
2021/04/28 01:50:53;;;;;;;34.10;18.85;;;;;;;1.37;61.83;100669.24;1674205;84;27304;-74
2021/04/28 01:53:24;;;;;;;41.53;21.05;;;;;;;1.35;61.89;100668.53;1654673;84;26411;-74
2021/04/28 01:55:55;;;;;;;41.13;19.48;;;;;;;1.29;61.92;100664.23;1679537;84;25713;-74
2021/04/28 01:58:52;;;;;;;36.98;18.27;;;;;;;1.22;62.03;100662.59;1835852;77;26375;-73
2021/04/28 02:01:25;;;;;;;40.08;19.42;;;;;;;1.10;62.16;100659.64;1780528;78;25883;-74
2021/04/28 02:03:56;;;;;;;32.90;17.55;;;;;;;1.07;62.22;100654.61;1813586;78;28166;-74
2021/04/28 02:06:24;;;;;;;36.00;17.52;;;;;;;0.97;62.32;100658.11;1743102;79;26610;-74
2021/04/28 02:08:52;;;;;;;29.00;16.77;;;;;;;0.85;62.40;100654.69;1766753;80;25905;-75
2021/04/28 02:11:19;;;;;;;33.90;17.05;;;;;;;0.79;62.64;100645.95;1755060;79;26520;-74
2021/04/28 02:13:49;;;;;;;36.48;19.80;;;;;;;0.71;62.85;100646.56;1794399;78;26358;-74
2021/04/28 02:16:45;;;;;;;33.70;19.90;;;;;;;0.79;63.00;100644.64;1747458;79;38823;-74
2021/04/28 02:19:14;;;;;;;37.05;19.40;;;;;;;0.93;62.40;100639.08;1712101;80;25770;-73
2021/04/28 02:21:52;;;;;;;39.98;19.05;;;;;;;0.86;62.77;100639.20;1723754;80;28427;-74
2021/04/28 02:24:21;;;;;;;37.88;18.32;;;;;;;0.86;62.89;100641.00;1673752;83;25812;-74
2021/04/28 02:26:56;;;;;;;31.97;16.17;;;;;;;0.88;62.94;100641.74;1696472;81;25845;-73
2021/04/28 02:29:25;;;;;;;26.10;13.75;;;;;;;0.89;63.01;100639.45;1697249;81;25679;-74
2021/04/28 02:31:53;;;;;;;25.68;13.95;;;;;;;0.88;63.01;100633.33;1712523;81;26430;-74
2021/04/28 02:34:22;;;;;;;26.10;13.62;;;;;;;0.87;63.11;100642.69;1612409;85;28903;-74
2021/04/28 02:37:06;;;;;;;27.62;14.40;;;;;;;0.88;63.24;100633.33;1809025;77;25685;-73
2021/04/28 02:39:50;;;;;;;24.85;12.98;;;;;;;0.79;63.28;100638.05;1669548;83;25740;-74
2021/04/28 02:42:17;;;;;;;20.12;11.53;;;;;;;0.72;63.32;100639.02;1710490;83;28505;-74
2021/04/28 02:44:48;;;;;;;23.92;11.03;;;;;;;0.67;63.37;100641.65;1639727;83;25795;-74
2021/04/28 02:47:16;;;;;;;17.90;11.10;;;;;;;0.60;63.60;100641.30;1661582;83;32565;-73
2021/04/28 02:49:45;;;;;;;20.62;12.70;;;;;;;0.51;63.71;100637.26;1679391;83;25744;-74
2021/04/28 02:52:31;;;;;;;23.62;12.75;;;;;;;0.46;64.00;100632.82;1677850;83;26080;-74
2021/04/28 02:54:59;;;;;;;25.52;14.23;;;;;;;0.44;64.09;100629.00;1634239;83;27628;-73
2021/04/28 02:57:28;;;;;;;28.23;14.63;;;;;;;0.46;64.18;100628.39;1676401;83;26109;-74
2021/04/28 02:59:57;;;;;;;23.42;13.20;;;;;;;0.47;64.22;100636.64;1655319;83;25777;-73
2021/04/28 03:02:27;;;;;;;22.62;13.25;;;;;;;0.49;64.19;100637.36;1709394;83;26126;-74
2021/04/28 03:04:54;;;;;;;26.07;13.62;;;;;;;0.49;64.25;100634.72;1651213;83;26089;-74
2021/04/28 03:07:24;;;;;;;23.57;13.32;;;;;;;0.50;64.17;100632.93;1675776;83;28453;-73
2021/04/28 03:09:52;;;;;;;26.05;13.60;;;;;;;0.49;64.09;100642.62;1677130;83;26161;-73
2021/04/28 03:12:23;;;;;;;29.48;13.98;;;;;;;0.50;64.25;100639.52;1694250;83;25743;-76
2021/04/28 03:14:54;;;;;;;26.30;13.28;;;;;;;0.50;64.29;100635.56;1676235;83;25744;-74
2021/04/28 03:17:22;;;;;;;24.95;12.90;;;;;;;0.49;64.34;100631.27;1652312;83;25864;-74
2021/04/28 03:19:55;;;;;;;26.30;13.40;;;;;;;0.49;64.26;100632.59;1673426;83;28348;-73
2021/04/28 03:22:24;;;;;;;20.20;12.90;;;;;;;0.48;64.34;100638.80;1695550;83;25766;-74
2021/04/28 03:24:52;;;;;;;26.70;13.72;;;;;;;0.47;64.29;100634.01;1665680;83;26037;-74
2021/04/28 03:27:23;;;;;;;22.98;14.47;;;;;;;0.51;64.41;100635.44;1651881;83;26114;-74
2021/04/28 03:29:51;;;;;;;26.93;15.15;;;;;;;0.50;64.32;100631.61;1669389;83;25756;-74
2021/04/28 03:32:19;;;;;;;29.40;15.03;;;;;;;0.49;64.42;100632.09;1705514;83;28434;-74
2021/04/28 03:34:48;;;;;;;26.75;14.10;;;;;;;0.51;64.38;100628.84;1627458;85;26141;-74
2021/04/28 03:37:15;;;;;;;32.15;15.93;;;;;;;0.56;64.66;100636.39;1660563;84;25863;-74
2021/04/28 03:39:46;;;;;;;28.73;17.25;;;;;;;0.57;64.42;100638.92;1638546;84;26416;-74
2021/04/28 03:42:14;;;;;;;31.45;17.65;;;;;;;0.60;64.31;100639.98;1688146;84;25812;-74
2021/04/28 03:44:41;;;;;;;38.35;20.00;;;;;;;0.62;64.37;100638.56;1643316;84;28438;-74
2021/04/28 03:47:09;;;;;;;39.30;22.02;;;;;;;0.65;64.43;100640.94;1632953;83;25869;-73
2021/04/28 03:49:38;;;;;;;40.20;21.85;;;;;;;0.68;64.39;100644.66;1689928;82;25724;-73
2021/04/28 03:52:06;;;;;;;39.40;23.42;;;;;;;0.68;64.31;100650.74;1720545;82;26227;-75
2021/04/28 03:54:33;;;;;;;34.92;21.23;;;;;;;0.73;64.37;100654.33;1674218;82;25809;-75
2021/04/28 03:57:03;;;;;;;31.55;20.17;;;;;;;0.76;64.30;100656.27;1697358;82;27539;-74
2021/04/28 03:59:31;;;;;;;32.33;19.52;;;;;;;0.72;64.33;100636.86;1696506;82;25596;-74
2021/04/28 04:01:59;;;;;;;33.70;19.70;;;;;;;0.86;64.31;100658.14;1692106;84;25760;-74
2021/04/28 04:04:28;;;;;;;31.42;18.25;;;;;;;0.90;64.30;100656.45;1671098;83;26337;-74
2021/04/28 04:07:23;;;;;;;29.95;18.20;;;;;;;0.98;64.14;100654.05;1833245;77;26199;-74
2021/04/28 04:10:06;;;;;;;27.15;16.40;;;;;;;0.93;64.35;100652.27;1718684;82;26025;-74
2021/04/28 04:12:34;;;;;;;28.92;16.52;;;;;;;0.97;64.22;100654.16;1756342;80;27517;-74
2021/04/28 04:15:05;;;;;;;27.93;15.98;;;;;;;1.00;64.25;100660.52;1718605;80;25806;-75
2021/04/28 04:17:33;;;;;;;24.92;14.58;;;;;;;1.06;64.30;100660.02;1742448;80;25822;-75
2021/04/28 04:20:12;;;;;;;29.85;16.55;;;;;;;1.17;64.28;100666.10;1796991;77;25708;-74
2021/04/28 04:22:41;;;;;;;24.82;13.48;;;;;;;1.18;64.27;100661.16;1705975;80;25758;-74
2021/04/28 04:25:30;;;;;;;27.45;15.28;;;;;;;1.33;64.37;100670.47;1789468;79;25770;-74
2021/04/28 04:27:58;;;;;;;24.18;15.30;;;;;;;1.29;64.42;100666.41;1729557;80;26337;-74
2021/04/28 04:30:44;;;;;;;30.35;14.78;;;;;;;1.31;64.29;100671.08;1760653;80;27530;-74
2021/04/28 04:33:23;;;;;;;30.00;16.52;;;;;;;1.41;64.37;100669.84;1800489;77;25726;-74
2021/04/28 04:36:09;;;;;;;27.73;14.58;;;;;;;1.41;64.36;100669.84;1658444;83;26062;-74
2021/04/28 04:38:55;;;;;;;28.98;15.85;;;;;;;1.44;64.36;100668.25;1714591;82;27513;-75
2021/04/28 04:41:36;;;;;;;35.50;16.75;;;;;;;1.48;64.34;100676.27;1650664;83;26102;-75
2021/04/28 04:44:16;;;;;;;38.13;17.67;;;;;;;1.58;64.44;100668.45;1839255;77;25317;-74
2021/04/28 04:46:48;;;;;;;37.00;17.50;;;;;;;1.57;64.50;100672.88;1763398;79;25720;-74
2021/04/28 04:49:15;;;;;;;31.42;17.82;;;;;;;1.66;64.50;100674.76;1800673;78;27518;-73
2021/04/28 04:51:43;;;;;;;36.17;17.65;;;;;;;1.74;64.54;100679.38;1766027;78;26319;-75
2021/04/28 04:54:10;;;;;;;38.33;18.07;;;;;;;1.80;64.70;100674.42;1765714;78;25923;-73
2021/04/28 04:56:37;;;;;;;34.45;18.57;;;;;;;1.87;64.89;100674.27;1768066;79;25920;-74
2021/04/28 04:59:05;;;;;;;43.63;18.48;;;;;;;1.95;64.98;100679.73;1805475;78;26064;-74
2021/04/28 05:01:32;;;;;;;42.65;19.23;;;;;;;2.02;65.22;100668.17;1748481;79;27543;-75
2021/04/28 05:04:00;;;;;;;36.90;19.60;;;;;;;2.12;65.35;100669.05;1780135;78;25783;-74
2021/04/28 05:06:27;;;;;;;35.70;20.15;;;;;;;2.20;65.52;100672.71;1802571;78;25726;-74
2021/04/28 05:08:54;;;;;;;34.20;17.85;;;;;;;2.31;65.73;100670.46;1794321;78;25894;-74
2021/04/28 05:11:22;;;;;;;36.35;19.27;;;;;;;2.42;66.14;100669.05;1756050;79;25760;-74
2021/04/28 05:13:49;;;;;;;31.62;17.73;;;;;;;2.64;65.83;100667.55;1780784;79;28530;-74
2021/04/28 05:16:17;;;;;;;36.60;20.82;;;;;;;2.89;66.87;100666.20;1795560;78;26420;-74
2021/04/28 05:18:45;;;;;;;32.55;19.67;;;;;;;3.17;65.40;100668.55;1785712;78;25366;-74
2021/04/28 05:21:12;;;;;;;31.80;17.82;;;;;;;3.31;64.42;100662.87;1751834;78;26207;-74
2021/04/28 05:23:39;;;;;;;31.97;17.75;;;;;;;3.45;64.09;100671.22;1761202;78;26085;-75
2021/04/28 05:26:25;;;;;;;31.25;18.75;;;;;;;3.57;63.68;100666.12;1761961;79;27336;-74
2021/04/28 05:28:53;;;;;;;35.48;19.82;;;;;;;3.70;63.38;100668.51;1791123;79;26070;-74
2021/04/28 05:31:20;;;;;;;32.38;19.57;;;;;;;3.81;63.14;100667.84;1741387;78;25757;-74
2021/04/28 05:33:48;;;;;;;28.70;18.40;;;;;;;3.91;63.27;100656.73;1783586;78;25881;-74
2021/04/28 05:36:15;;;;;;;32.73;20.23;;;;;;;4.04;63.23;100664.41;1807671;78;25924;-74
2021/04/28 05:38:42;;;;;;;44.13;25.68;;;;;;;4.17;63.20;100662.77;1795216;78;27696;-74
2021/04/28 05:41:10;;;;;;;35.03;21.15;;;;;;;4.29;63.03;100659.78;1768554;79;26090;-73
2021/04/28 05:43:38;;;;;;;33.42;18.45;;;;;;;4.42;62.87;100660.30;1783308;78;25922;-73
2021/04/28 05:46:06;;;;;;;37.70;18.70;;;;;;;4.55;62.90;100658.15;1774679;78;25972;-73
2021/04/28 05:48:34;;;;;;;35.80;19.65;;;;;;;4.67;62.54;100660.09;1794937;78;25920;-77
2021/04/28 05:51:01;;;;;;;32.80;18.07;;;;;;;4.81;62.62;100665.41;1742317;78;28621;-76
2021/04/28 05:53:28;;;;;;;27.60;16.70;;;;;;;4.92;61.39;100663.38;1745299;80;25751;-74
2021/04/28 05:55:56;;;;;;;31.15;16.95;;;;;;;5.04;61.88;100660.03;1771361;78;25817;-74
2021/04/28 05:58:27;;;;;;;30.17;16.50;;;;;;;5.18;61.65;100666.14;1790106;79;25690;-75
2021/04/28 06:00:54;;;;;;;;;;;;;;;5.31;61.70;100662.62;1750355;78;25856;-74
2021/04/28 06:03:21;;;;;;;26.07;14.58;;;;;;;5.43;60.89;100661.42;1785987;78;27584;-73
2021/04/28 06:05:49;;;;;;;27.27;15.70;;;;;;;5.53;60.90;100664.83;1774159;79;25932;-75
2021/04/28 06:08:17;;;;;;;28.15;15.58;;;;;;;5.65;60.62;100661.42;1768623;79;25779;-74
2021/04/28 06:10:45;;;;;;;30.43;16.12;;;;;;;5.78;60.67;100662.70;1766834;80;25850;-75
2021/04/28 06:13:12;;;;;;;25.70;15.95;;;;;;;5.91;60.13;100660.52;1808822;78;26054;-75
2021/04/28 06:15:40;;;;;;;31.17;16.35;;;;;;;6.04;60.09;100662.76;1798379;78;27326;-75
2021/04/28 06:18:07;;;;;;;27.25;15.38;;;;;;;6.15;59.91;100653.20;1739248;79;25813;-73
2021/04/28 06:20:35;;;;;;;23.85;14.95;;;;;;;6.26;59.76;100652.94;1779082;78;25909;-75
2021/04/28 06:23:04;;;;;;;29.98;16.32;;;;;;;6.38;59.40;100652.14;1795123;79;25407;-73
2021/04/28 06:25:32;;;;;;;28.70;16.00;;;;;;;6.49;59.01;100661.19;1762342;80;25811;-74
2021/04/28 06:27:59;;;;;;;23.67;13.98;;;;;;;6.58;58.93;100649.59;1775606;78;28999;-74
2021/04/28 06:30:26;;;;;;;25.35;15.18;;;;;;;6.70;59.00;100649.14;1755138;79;25844;-74
2021/04/28 06:32:54;;;;;;;27.30;14.15;;;;;;;6.83;59.30;100656.19;1766389;78;25947;-74
2021/04/28 06:35:21;;;;;;;26.35;13.38;;;;;;;6.98;58.63;100648.41;1794594;78;25809;-74
2021/04/28 06:37:49;;;;;;;22.65;13.93;;;;;;;7.10;58.20;100650.27;1737863;80;25857;-74
2021/04/28 06:40:16;;;;;;;19.00;12.78;;;;;;;7.20;57.64;100641.63;1769578;78;27518;-73
2021/04/28 06:42:44;;;;;;;28.87;15.15;;;;;;;7.31;57.81;100642.16;1762160;80;25740;-75
2021/04/28 06:45:11;;;;;;;24.45;14.83;;;;;;;7.45;57.73;100640.66;1795661;78;26366;-74
2021/04/28 06:47:39;;;;;;;25.85;14.78;;;;;;;7.57;57.80;100643.34;1764496;80;26491;-74
2021/04/28 06:50:09;;;;;;;26.95;14.23;;;;;;;7.69;57.37;100640.17;1728540;81;25790;-74
2021/04/28 06:52:37;;;;;;;21.17;12.95;;;;;;;7.78;56.53;100637.81;1737167;81;29807;-74
2021/04/28 06:55:05;;;;;;;21.33;13.32;;;;;;;7.89;56.84;100631.83;1699094;81;26520;-74
2021/04/28 06:57:33;;;;;;;21.25;12.65;;;;;;;8.02;56.74;100627.62;1729623;81;25747;-75
2021/04/28 07:00:00;;;;;;;20.10;13.15;;;;;;;8.18;55.85;100625.43;1672881;81;26059;-74
2021/04/28 07:02:27;;;;;;;23.20;13.25;;;;;;;8.30;54.91;100628.92;1746809;81;25478;-73
2021/04/28 07:04:55;;;;;;;19.10;12.20;;;;;;;8.40;54.66;100626.87;1737705;81;27384;-75
2021/04/28 07:07:22;;;;;;;24.12;11.78;;;;;;;8.50;54.06;100624.03;1750668;80;26399;-74
2021/04/28 07:09:50;;;;;;;21.37;10.78;;;;;;;8.59;53.16;100629.67;1747559;80;25784;-74
2021/04/28 07:12:17;;;;;;;23.42;12.70;;;;;;;8.68;53.54;100627.30;1737045;80;25926;-74
2021/04/28 07:14:45;;;;;;;20.65;12.88;;;;;;;8.81;53.82;100631.55;1733232;81;26011;-73
2021/04/28 07:17:12;;;;;;;19.95;12.20;;;;;;;8.96;53.35;100631.67;1766617;80;27533;-75
2021/04/28 07:19:39;;;;;;;19.40;11.38;;;;;;;9.08;52.26;100635.59;1711990;80;25999;-75
2021/04/28 07:22:07;;;;;;;22.65;12.58;;;;;;;9.16;51.95;100631.03;1746918;80;26634;-74
2021/04/28 07:24:34;;;;;;;19.02;11.18;;;;;;;9.23;50.71;100637.34;1764517;80;25957;-75
2021/04/28 07:27:01;;;;;;;22.02;10.68;;;;;;;9.31;51.29;100631.94;1741572;80;25894;-74
2021/04/28 07:29:29;;;;;;;21.48;12.35;;;;;;;9.41;49.96;100629.01;1703170;80;27609;-74
2021/04/28 07:31:58;;;;;;;22.42;10.78;;;;;;;9.47;49.46;100628.82;1765860;80;25767;-75
2021/04/28 07:34:25;;;;;;;15.65;9.85;;;;;;;9.54;50.15;100625.23;1769795;80;25905;-74
2021/04/28 07:36:52;;;;;;;14.07;8.83;;;;;;;9.66;49.16;100631.00;1723721;80;25798;-75
2021/04/28 07:39:20;;;;;;;15.35;9.03;;;;;;;9.77;49.16;100623.36;1763103;80;26360;-75
2021/04/28 07:41:48;;;;;;;16.30;9.10;;;;;;;9.88;48.71;100616.77;1767528;80;27631;-74
2021/04/28 07:44:15;;;;;;;15.75;10.40;;;;;;;9.96;48.24;100620.70;1728642;81;25942;-75
2021/04/28 07:46:43;;;;;;;14.30;8.98;;;;;;;10.03;47.64;100613.58;1721652;80;25761;-74
2021/04/28 07:49:11;;;;;;;16.00;9.83;;;;;;;10.12;46.76;100621.05;1744006;80;25758;-75
2021/04/28 07:51:38;;;;;;;18.95;11.08;;;;;;;10.17;46.85;100614.66;1771921;80;25871;-74
2021/04/28 07:54:06;;;;;;;16.55;10.03;;;;;;;10.23;46.80;100606.72;1721059;80;27347;-75
2021/04/28 07:56:33;;;;;;;15.60;10.13;;;;;;;10.35;48.35;100607.91;1735705;81;26027;-74
2021/04/28 07:59:01;;;;;;;18.42;10.45;;;;;;;10.50;47.89;100605.25;1702225;80;25871;-74
2021/04/28 08:01:28;;;;;;;14.33;10.23;;;;;;;10.61;46.36;100607.44;1732841;81;26120;-74
2021/04/28 08:03:55;;;;;;;15.30;9.55;;;;;;;10.69;47.49;100606.02;1728382;81;26450;-74
2021/04/28 08:06:23;;;;;;;17.10;9.45;;;;;;;10.76;45.69;100607.74;1720769;81;28470;-73
2021/04/28 08:08:50;;;;;;;15.18;10.10;;;;;;;10.82;45.84;100598.95;1722835;81;25938;-74
2021/04/28 08:11:18;;;;;;;12.88;8.80;;;;;;;10.88;45.11;100601.41;1748744;81;25869;-75
2021/04/28 08:13:47;;;;;;;11.15;7.83;;;;;;;10.94;44.18;100601.14;1724485;81;25988;-74
2021/04/28 08:16:16;;;;;;;12.25;7.85;;;;;;;11.01;43.96;100602.89;1703984;82;25975;-75
2021/04/28 08:18:44;;;;;;;14.20;8.00;;;;;;;11.08;43.30;100594.90;1742843;81;28846;-75
2021/04/28 08:21:11;;;;;;;12.65;8.30;;;;;;;11.16;43.27;100604.98;1721812;82;26061;-75
2021/04/28 08:23:42;;;;;;;16.50;8.30;;;;;;;11.22;41.60;100598.89;1736992;82;25723;-75
2021/04/28 08:26:10;;;;;;;11.18;6.85;;;;;;;11.25;41.82;100598.99;1728292;81;26103;-74
2021/04/28 08:28:41;;;;;;;12.55;7.75;;;;;;;11.29;41.71;100599.77;1707246;81;25904;-74
2021/04/28 08:31:14;;;;;;;12.28;7.72;;;;;;;11.36;42.51;100599.33;1702734;82;28543;-74
2021/04/28 08:33:42;;;;;;;10.88;7.87;;;;;;;11.42;40.98;100601.23;1722236;81;26492;-74
2021/04/28 08:36:10;;;;;;;11.83;6.55;;;;;;;11.48;40.77;100602.34;1720582;81;25803;-74
2021/04/28 08:38:38;;;;;;;10.28;6.72;;;;;;;11.51;40.11;100600.59;1711752;81;25796;-74
2021/04/28 08:41:09;;;;;;;13.75;7.00;;;;;;;11.55;39.99;100585.77;1712469;81;25831;-74
2021/04/28 08:43:37;;;;;;;14.15;6.65;;;;;;;11.63;41.66;100591.02;1719842;82;27554;-75
2021/04/28 08:46:06;;;;;;;7.37;5.65;;;;;;;11.71;41.54;100590.07;1703034;82;25869;-75
2021/04/28 08:48:35;;;;;;;11.93;6.83;;;;;;;11.78;41.39;100580.23;1678993;82;26407;-75
2021/04/28 08:51:04;;;;;;;12.18;7.03;;;;;;;11.84;41.12;100579.45;1681323;82;25777;-74
2021/04/28 08:53:34;;;;;;;8.85;6.40;;;;;;;11.88;40.87;100577.52;1706093;82;25872;-74
2021/04/28 08:56:06;;;;;;;11.33;6.55;;;;;;;11.93;40.48;100581.77;1732000;82;27523;-74
2021/04/28 08:58:35;;;;;;;8.98;6.40;;;;;;;11.98;40.34;100579.84;1681143;82;25936;-74
2021/04/28 09:01:05;;;;;;;12.88;6.40;;;;;;;12.04;39.51;100580.42;1708357;82;25796;-74
2021/04/28 09:03:44;;;;;;;11.23;6.57;;;;;;;12.05;39.38;100577.53;1696929;82;25884;-74
2021/04/28 09:06:34;;;;;;;8.25;6.53;;;;;;;12.07;39.04;100572.80;1729699;82;25760;-74
2021/04/28 09:09:09;;;;;;;10.95;7.00;;;;;;;12.13;39.87;100579.22;1734124;82;27541;-75
2021/04/28 09:11:44;;;;;;;11.43;6.60;;;;;;;12.21;38.62;100571.03;1728599;82;25754;-74
2021/04/28 09:14:20;;;;;;;12.35;7.47;;;;;;;12.27;39.75;100573.72;1700635;82;25827;-74
2021/04/28 09:16:56;;;;;;;12.53;8.20;;;;;;;12.36;39.75;100569.86;1728449;82;26448;-74
2021/04/28 09:19:54;;;;;;;11.00;7.33;;;;;;;12.54;39.23;100572.52;1840969;77;25655;-75
2021/04/28 09:22:33;;;;;;;10.30;6.67;;;;;;;12.51;38.84;100567.03;1699567;82;26020;-75
2021/04/28 09:25:43;;;;;;;13.03;7.08;;;;;;;12.56;38.29;100565.09;1801047;77;25673;-75
2021/04/28 09:28:35;;;;;;;11.78;7.87;;;;;;;12.54;38.79;100572.52;1667801;85;25864;-74
2021/04/28 09:31:12;;;;;;;13.53;7.67;;;;;;;12.54;38.47;100553.20;1651697;85;28442;-76
2021/04/28 09:33:55;;;;;;;10.93;7.30;;;;;;;12.62;38.57;100555.71;1708080;80;25822;-74
2021/04/28 09:36:31;;;;;;;11.70;7.42;;;;;;;12.68;39.43;100553.56;1702670;80;25952;-74
2021/04/28 09:39:10;;;;;;;12.98;7.97;;;;;;;12.75;38.82;100549.05;1715299;80;26460;-76
2021/04/28 09:41:44;;;;;;;10.58;6.80;;;;;;;12.78;38.21;100547.81;1732881;80;25770;-75
2021/04/28 09:44:29;;;;;;;10.32;6.90;;;;;;;12.80;37.97;100539.03;1716514;82;27642;-74
2021/04/28 09:47:21;;;;;;;12.00;8.45;;;;;;;12.84;38.07;100540.28;1708828;82;25816;-75
2021/04/28 09:50:01;;;;;;;14.65;7.20;;;;;;;12.87;38.03;100530.48;1752583;80;25808;-74
2021/04/28 09:52:41;;;;;;;18.43;8.50;;;;;;;12.84;38.49;100520.12;1746665;80;25844;-75
2021/04/28 09:55:13;;;;;;;13.22;7.40;;;;;;;12.89;37.83;100518.50;1719445;80;25726;-75
2021/04/28 09:57:50;;;;;;;9.98;6.58;;;;;;;12.97;36.58;100514.27;1721015;80;28866;-75
2021/04/28 10:00:23;;;;;;;12.35;7.45;;;;;;;13.05;38.27;100515.95;1712111;82;26520;-73
2021/04/28 10:02:56;;;;;;;9.73;7.05;;;;;;;13.06;36.30;100509.05;1746442;80;25838;-74
2021/04/28 10:05:30;;;;;;;14.45;6.67;;;;;;;13.12;37.97;100502.84;1687936;80;26120;-74
2021/04/28 10:08:20;;;;;;;14.50;7.25;;;;;;;13.24;38.46;100497.66;1691462;80;25786;-74
2021/04/28 10:10:50;;;;;;;8.08;5.50;;;;;;;13.40;37.93;100496.43;1744155;80;28130;-74
2021/04/28 10:13:18;;;;;;;10.15;6.05;;;;;;;13.48;37.83;100491.67;1729371;82;25685;-75
2021/04/28 10:15:46;;;;;;;9.70;6.78;;;;;;;13.48;37.69;100492.18;1686440;80;26402;-74
2021/04/28 10:18:16;;;;;;;12.78;6.80;;;;;;;13.56;37.84;100503.55;1716227;80;25798;-75
2021/04/28 10:20:45;;;;;;;11.78;7.55;;;;;;;13.64;37.07;100503.33;1715075;80;25987;-74
2021/04/28 10:23:16;;;;;;;13.53;6.97;;;;;;;13.62;36.85;100495.98;1746447;80;28528;-73
2021/04/28 10:25:49;;;;;;;14.30;7.83;;;;;;;13.59;36.91;100487.00;1670779;82;25717;-74
2021/04/28 10:28:17;;;;;;;9.70;6.75;;;;;;;13.57;37.43;100486.90;1663414;82;25397;-74
2021/04/28 10:30:47;;;;;;;12.13;6.42;;;;;;;13.60;37.52;100483.27;1699742;82;26104;-74
2021/04/28 10:33:25;;;;;;;9.25;6.95;;;;;;;13.66;37.06;100487.83;1730885;82;25733;-75
2021/04/28 10:35:53;;;;;;;9.18;6.45;;;;;;;13.73;37.22;100479.20;1699895;82;27605;-74
2021/04/28 10:38:25;;;;;;;10.53;6.00;;;;;;;13.81;36.31;100482.21;1698548;81;25833;-73
2021/04/28 10:40:53;;;;;;;11.38;7.03;;;;;;;13.87;37.09;100475.47;1700882;82;26474;-74
2021/04/28 10:43:20;;;;;;;10.10;6.22;;;;;;;13.89;37.17;100473.90;1726280;82;26106;-74
2021/04/28 10:45:48;;;;;;;10.60;6.40;;;;;;;13.91;36.88;100465.92;1650388;82;26527;-74
2021/04/28 10:48:21;;;;;;;10.80;7.25;;;;;;;13.93;37.17;100467.88;1685213;82;28427;-75
2021/04/28 10:50:49;;;;;;;9.58;6.67;;;;;;;14.00;35.51;100470.56;1648279;84;26612;-74
2021/04/28 10:53:23;;;;;;;12.13;8.45;;;;;;;14.05;36.34;100473.97;1638398;86;25855;-75
2021/04/28 10:56:15;;;;;;;13.68;6.58;;;;;;;14.06;36.42;100472.40;1634375;87;26197;-74
2021/04/28 10:58:47;;;;;;;11.35;6.92;;;;;;;14.15;36.39;100474.34;1623355;86;26669;-74
2021/04/28 11:01:19;;;;;;;11.38;7.60;;;;;;;14.21;37.26;100471.63;1594925;86;27108;-74
2021/04/28 11:03:51;;;;;;;9.00;6.22;;;;;;;14.28;36.58;100460.31;1641817;86;26428;-75
2021/04/28 11:06:30;;;;;;;10.55;6.70;;;;;;;14.37;36.23;100462.27;1838099;77;25623;-75
2021/04/28 11:09:02;;;;;;;;;;;;;;;14.32;35.85;100458.03;1794082;79;25909;-75
2021/04/28 11:11:41;;;;;;;8.73;6.40;;;;;;;14.35;35.78;100460.31;1797812;79;27595;-75
2021/04/28 11:14:24;;;;;;;12.73;6.75;;;;;;;14.34;36.16;100456.78;1755807;79;25788;-74
2021/04/28 11:16:56;;;;;;;11.10;6.60;;;;;;;14.39;35.58;100454.80;1796073;79;25834;-74
2021/04/28 11:19:38;;;;;;;11.00;8.83;;;;;;;14.42;37.37;100449.79;1724946;80;26431;-74
2021/04/28 11:22:24;;;;;;;11.83;7.42;;;;;;;14.51;37.14;100437.72;1776472;80;26478;-74
2021/04/28 11:25:08;;;;;;;10.58;7.12;;;;;;;14.63;36.68;100440.03;1755519;80;27540;-74
2021/04/28 11:28:04;;;;;;;13.30;7.55;;;;;;;14.76;36.70;100435.06;1734631;81;25748;-75
2021/04/28 11:30:42;;;;;;;8.15;6.50;;;;;;;14.80;36.22;100432.78;1739099;81;25826;-74
2021/04/28 11:33:16;;;;;;;11.10;6.72;;;;;;;14.86;36.14;100431.91;1680364;83;26022;-74
2021/04/28 11:35:55;;;;;;;10.78;7.87;;;;;;;14.93;35.05;100428.10;1706517;82;26147;-74
2021/04/28 11:38:30;;;;;;;7.53;5.62;;;;;;;15.06;34.90;100425.82;1704697;82;27542;-74